sensor_id;sensor_type;location;lat;lon;timestamp;P1;durP1;ratioP1;P2;durP2;ratioP2
18048;SDS011;9149;47.002;8.604;2022-09-06T00:01:54;5.30;;;2.65;;
18048;SDS011;9149;47.002;8.604;2022-09-06T00:04:22;3.88;;;2.42;;
18048;SDS011;9149;47.002;8.604;2022-09-06T00:06:51;5.30;;;3.00;;
18048;SDS011;9149;47.002;8.604;2022-09-06T00:09:18;3.45;;;2.58;;
18048;SDS011;9149;47.002;8.604;2022-09-06T00:11:46;4.07;;;2.50;;
18048;SDS011;9149;47.002;8.604;2022-09-06T00:14:14;5.13;;;2.80;;
18048;SDS011;9149;47.002;8.604;2022-09-06T00:16:42;9.15;;;2.88;;
18048;SDS011;9149;47.002;8.604;2022-09-06T00:19:10;5.45;;;2.92;;
18048;SDS011;9149;47.002;8.604;2022-09-06T00:21:38;6.35;;;2.53;;
18048;SDS011;9149;47.002;8.604;2022-09-06T00:24:07;4.00;;;2.70;;
18048;SDS011;9149;47.002;8.604;2022-09-06T00:26:35;4.95;;;2.90;;
18048;SDS011;9149;47.002;8.604;2022-09-06T00:29:03;6.45;;;2.90;;
18048;SDS011;9149;47.002;8.604;2022-09-06T00:31:30;10.75;;;3.00;;
18048;SDS011;9149;47.002;8.604;2022-09-06T00:33:58;4.45;;;2.80;;
18048;SDS011;9149;47.002;8.604;2022-09-06T00:36:26;4.53;;;2.72;;
18048;SDS011;9149;47.002;8.604;2022-09-06T00:38:53;3.75;;;2.78;;
18048;SDS011;9149;47.002;8.604;2022-09-06T00:41:23;4.05;;;3.08;;
18048;SDS011;9149;47.002;8.604;2022-09-06T00:43:51;5.35;;;2.90;;
18048;SDS011;9149;47.002;8.604;2022-09-06T00:46:19;4.50;;;2.47;;
18048;SDS011;9149;47.002;8.604;2022-09-06T00:48:48;8.43;;;3.25;;
18048;SDS011;9149;47.002;8.604;2022-09-06T00:51:17;7.80;;;2.90;;
18048;SDS011;9149;47.002;8.604;2022-09-06T00:53:45;3.28;;;2.70;;
18048;SDS011;9149;47.002;8.604;2022-09-06T00:56:13;5.70;;;3.50;;
18048;SDS011;9149;47.002;8.604;2022-09-06T00:58:42;5.18;;;2.90;;
18048;SDS011;9149;47.002;8.604;2022-09-06T01:01:10;5.93;;;3.40;;
18048;SDS011;9149;47.002;8.604;2022-09-06T01:03:38;5.25;;;3.33;;
18048;SDS011;9149;47.002;8.604;2022-09-06T01:06:10;4.63;;;2.85;;
18048;SDS011;9149;47.002;8.604;2022-09-06T01:08:45;4.63;;;2.72;;
18048;SDS011;9149;47.002;8.604;2022-09-06T01:11:21;5.25;;;3.35;;
18048;SDS011;9149;47.002;8.604;2022-09-06T01:13:54;5.47;;;3.15;;
18048;SDS011;9149;47.002;8.604;2022-09-06T01:16:24;4.30;;;2.80;;
18048;SDS011;9149;47.002;8.604;2022-09-06T01:18:58;7.53;;;2.88;;
18048;SDS011;9149;47.002;8.604;2022-09-06T01:21:31;5.82;;;3.00;;
18048;SDS011;9149;47.002;8.604;2022-09-06T01:24:28;4.85;;;3.15;;
18048;SDS011;9149;47.002;8.604;2022-09-06T01:27:11;3.83;;;2.92;;
18048;SDS011;9149;47.002;8.604;2022-09-06T01:29:44;4.45;;;3.03;;
18048;SDS011;9149;47.002;8.604;2022-09-06T01:32:17;4.05;;;2.83;;
18048;SDS011;9149;47.002;8.604;2022-09-06T01:34:47;4.10;;;2.97;;
18048;SDS011;9149;47.002;8.604;2022-09-06T01:37:17;5.03;;;3.42;;
18048;SDS011;9149;47.002;8.604;2022-09-06T01:39:47;4.03;;;3.15;;
18048;SDS011;9149;47.002;8.604;2022-09-06T01:42:15;6.60;;;3.28;;
18048;SDS011;9149;47.002;8.604;2022-09-06T01:44:46;6.53;;;2.90;;
18048;SDS011;9149;47.002;8.604;2022-09-06T01:47:18;4.25;;;2.80;;
18048;SDS011;9149;47.002;8.604;2022-09-06T01:49:53;6.68;;;3.45;;
18048;SDS011;9149;47.002;8.604;2022-09-06T01:52:24;4.28;;;3.10;;
18048;SDS011;9149;47.002;8.604;2022-09-06T01:55:01;5.40;;;3.35;;
18048;SDS011;9149;47.002;8.604;2022-09-06T01:57:38;6.82;;;3.35;;
18048;SDS011;9149;47.002;8.604;2022-09-06T02:00:09;8.90;;;3.30;;
18048;SDS011;9149;47.002;8.604;2022-09-06T02:02:41;3.80;;;2.90;;
18048;SDS011;9149;47.002;8.604;2022-09-06T02:05:10;4.03;;;2.92;;
18048;SDS011;9149;47.002;8.604;2022-09-06T02:07:40;5.55;;;3.50;;
18048;SDS011;9149;47.002;8.604;2022-09-06T02:10:09;5.63;;;3.13;;
18048;SDS011;9149;47.002;8.604;2022-09-06T02:12:38;5.15;;;3.10;;
18048;SDS011;9149;47.002;8.604;2022-09-06T02:15:09;4.57;;;3.10;;
18048;SDS011;9149;47.002;8.604;2022-09-06T02:17:40;4.47;;;3.00;;
18048;SDS011;9149;47.002;8.604;2022-09-06T02:20:10;8.00;;;3.47;;
18048;SDS011;9149;47.002;8.604;2022-09-06T02:22:40;5.05;;;3.20;;
18048;SDS011;9149;47.002;8.604;2022-09-06T02:25:09;4.53;;;3.40;;
18048;SDS011;9149;47.002;8.604;2022-09-06T02:27:38;10.25;;;3.38;;
18048;SDS011;9149;47.002;8.604;2022-09-06T02:30:06;4.50;;;3.05;;
18048;SDS011;9149;47.002;8.604;2022-09-06T02:32:36;8.38;;;3.50;;
18048;SDS011;9149;47.002;8.604;2022-09-06T02:35:06;5.07;;;3.42;;
18048;SDS011;9149;47.002;8.604;2022-09-06T02:37:35;4.95;;;3.38;;
18048;SDS011;9149;47.002;8.604;2022-09-06T02:40:02;7.20;;;3.25;;
18048;SDS011;9149;47.002;8.604;2022-09-06T02:42:31;5.00;;;3.22;;
18048;SDS011;9149;47.002;8.604;2022-09-06T02:44:59;5.25;;;3.28;;
18048;SDS011;9149;47.002;8.604;2022-09-06T02:47:27;11.40;;;3.00;;
18048;SDS011;9149;47.002;8.604;2022-09-06T02:49:56;5.70;;;3.45;;
18048;SDS011;9149;47.002;8.604;2022-09-06T02:52:23;6.10;;;3.47;;
18048;SDS011;9149;47.002;8.604;2022-09-06T02:54:51;5.63;;;3.00;;
18048;SDS011;9149;47.002;8.604;2022-09-06T02:57:19;4.65;;;3.00;;
18048;SDS011;9149;47.002;8.604;2022-09-06T02:59:46;4.07;;;2.97;;
18048;SDS011;9149;47.002;8.604;2022-09-06T03:02:15;4.22;;;2.92;;
18048;SDS011;9149;47.002;8.604;2022-09-06T03:04:43;7.32;;;3.53;;
18048;SDS011;9149;47.002;8.604;2022-09-06T03:07:12;4.95;;;3.20;;
18048;SDS011;9149;47.002;8.604;2022-09-06T03:09:39;5.03;;;3.47;;
18048;SDS011;9149;47.002;8.604;2022-09-06T03:12:07;5.70;;;3.17;;
18048;SDS011;9149;47.002;8.604;2022-09-06T03:14:35;8.10;;;3.60;;
18048;SDS011;9149;47.002;8.604;2022-09-06T03:17:03;6.10;;;3.35;;
18048;SDS011;9149;47.002;8.604;2022-09-06T03:19:31;4.55;;;3.10;;
18048;SDS011;9149;47.002;8.604;2022-09-06T03:21:59;7.13;;;3.30;;
18048;SDS011;9149;47.002;8.604;2022-09-06T03:24:28;5.53;;;3.22;;
18048;SDS011;9149;47.002;8.604;2022-09-06T03:26:56;6.32;;;3.10;;
18048;SDS011;9149;47.002;8.604;2022-09-06T03:29:24;6.70;;;3.33;;
18048;SDS011;9149;47.002;8.604;2022-09-06T03:31:51;5.65;;;3.20;;
18048;SDS011;9149;47.002;8.604;2022-09-06T03:34:19;4.90;;;3.10;;
18048;SDS011;9149;47.002;8.604;2022-09-06T03:36:47;6.07;;;3.28;;
18048;SDS011;9149;47.002;8.604;2022-09-06T03:39:15;4.90;;;3.10;;
18048;SDS011;9149;47.002;8.604;2022-09-06T03:41:44;6.50;;;3.05;;
18048;SDS011;9149;47.002;8.604;2022-09-06T03:44:11;4.47;;;3.10;;
18048;SDS011;9149;47.002;8.604;2022-09-06T03:46:39;7.10;;;2.85;;
18048;SDS011;9149;47.002;8.604;2022-09-06T03:49:07;6.07;;;3.05;;
18048;SDS011;9149;47.002;8.604;2022-09-06T03:51:35;7.28;;;3.35;;
18048;SDS011;9149;47.002;8.604;2022-09-06T03:54:03;7.90;;;3.60;;
18048;SDS011;9149;47.002;8.604;2022-09-06T03:56:31;9.02;;;3.97;;
18048;SDS011;9149;47.002;8.604;2022-09-06T03:59:00;4.45;;;3.08;;
18048;SDS011;9149;47.002;8.604;2022-09-06T04:01:27;6.78;;;3.88;;
18048;SDS011;9149;47.002;8.604;2022-09-06T04:03:55;6.85;;;3.28;;
18048;SDS011;9149;47.002;8.604;2022-09-06T04:06:23;5.88;;;3.38;;
18048;SDS011;9149;47.002;8.604;2022-09-06T04:08:51;7.32;;;3.80;;
18048;SDS011;9149;47.002;8.604;2022-09-06T04:11:37;5.20;;;3.55;;
18048;SDS011;9149;47.002;8.604;2022-09-06T04:14:06;4.60;;;3.30;;
18048;SDS011;9149;47.002;8.604;2022-09-06T04:16:34;9.27;;;3.63;;
18048;SDS011;9149;47.002;8.604;2022-09-06T04:19:01;4.35;;;3.17;;
18048;SDS011;9149;47.002;8.604;2022-09-06T04:21:30;5.43;;;3.47;;
18048;SDS011;9149;47.002;8.604;2022-09-06T04:23:58;10.48;;;3.80;;
18048;SDS011;9149;47.002;8.604;2022-09-06T04:26:25;6.53;;;3.35;;
18048;SDS011;9149;47.002;8.604;2022-09-06T04:28:53;4.72;;;3.40;;
18048;SDS011;9149;47.002;8.604;2022-09-06T04:31:22;5.60;;;3.65;;
18048;SDS011;9149;47.002;8.604;2022-09-06T04:33:50;5.90;;;3.88;;
18048;SDS011;9149;47.002;8.604;2022-09-06T04:36:18;6.03;;;3.75;;
18048;SDS011;9149;47.002;8.604;2022-09-06T04:38:45;7.00;;;3.70;;
18048;SDS011;9149;47.002;8.604;2022-09-06T04:41:14;6.50;;;3.28;;
18048;SDS011;9149;47.002;8.604;2022-09-06T04:43:44;4.68;;;3.30;;
18048;SDS011;9149;47.002;8.604;2022-09-06T04:46:13;6.15;;;3.22;;
18048;SDS011;9149;47.002;8.604;2022-09-06T04:48:44;7.88;;;3.47;;
18048;SDS011;9149;47.002;8.604;2022-09-06T04:51:11;5.97;;;3.55;;
18048;SDS011;9149;47.002;8.604;2022-09-06T04:53:39;9.60;;;4.22;;
18048;SDS011;9149;47.002;8.604;2022-09-06T04:56:08;5.53;;;3.65;;
18048;SDS011;9149;47.002;8.604;2022-09-06T04:58:38;5.15;;;2.95;;
18048;SDS011;9149;47.002;8.604;2022-09-06T05:01:06;8.02;;;3.70;;
18048;SDS011;9149;47.002;8.604;2022-09-06T05:03:33;5.90;;;3.58;;
18048;SDS011;9149;47.002;8.604;2022-09-06T05:06:04;4.70;;;3.40;;
18048;SDS011;9149;47.002;8.604;2022-09-06T05:08:51;6.18;;;3.10;;
18048;SDS011;9149;47.002;8.604;2022-09-06T05:11:19;5.97;;;3.72;;
18048;SDS011;9149;47.002;8.604;2022-09-06T05:13:46;9.43;;;4.15;;
18048;SDS011;9149;47.002;8.604;2022-09-06T05:16:15;7.40;;;3.80;;
18048;SDS011;9149;47.002;8.604;2022-09-06T05:18:43;5.18;;;3.30;;
18048;SDS011;9149;47.002;8.604;2022-09-06T05:21:12;5.70;;;2.97;;
18048;SDS011;9149;47.002;8.604;2022-09-06T05:23:40;10.18;;;3.50;;
18048;SDS011;9149;47.002;8.604;2022-09-06T05:26:08;8.10;;;3.80;;
18048;SDS011;9149;47.002;8.604;2022-09-06T05:28:35;8.90;;;3.47;;
18048;SDS011;9149;47.002;8.604;2022-09-06T05:31:04;9.00;;;3.70;;
18048;SDS011;9149;47.002;8.604;2022-09-06T05:33:32;9.52;;;3.45;;
18048;SDS011;9149;47.002;8.604;2022-09-06T05:35:59;14.23;;;3.17;;
18048;SDS011;9149;47.002;8.604;2022-09-06T05:38:29;11.32;;;3.65;;
18048;SDS011;9149;47.002;8.604;2022-09-06T05:40:57;5.70;;;3.55;;
18048;SDS011;9149;47.002;8.604;2022-09-06T05:43:24;9.10;;;3.50;;
18048;SDS011;9149;47.002;8.604;2022-09-06T05:45:52;7.45;;;2.78;;
18048;SDS011;9149;47.002;8.604;2022-09-06T05:48:20;5.50;;;2.92;;
18048;SDS011;9149;47.002;8.604;2022-09-06T05:50:57;6.85;;;3.15;;
18048;SDS011;9149;47.002;8.604;2022-09-06T05:53:25;4.88;;;3.00;;
18048;SDS011;9149;47.002;8.604;2022-09-06T05:55:54;5.47;;;2.70;;
18048;SDS011;9149;47.002;8.604;2022-09-06T05:58:22;4.95;;;3.05;;
18048;SDS011;9149;47.002;8.604;2022-09-06T06:00:49;5.68;;;3.22;;
18048;SDS011;9149;47.002;8.604;2022-09-06T06:03:17;7.05;;;3.47;;
18048;SDS011;9149;47.002;8.604;2022-09-06T06:05:45;6.38;;;2.88;;
18048;SDS011;9149;47.002;8.604;2022-09-06T06:08:12;6.22;;;2.70;;
18048;SDS011;9149;47.002;8.604;2022-09-06T06:10:40;5.22;;;2.80;;
18048;SDS011;9149;47.002;8.604;2022-09-06T06:13:09;11.60;;;3.20;;
18048;SDS011;9149;47.002;8.604;2022-09-06T06:15:37;7.63;;;2.63;;
18048;SDS011;9149;47.002;8.604;2022-09-06T06:18:05;3.83;;;2.47;;
18048;SDS011;9149;47.002;8.604;2022-09-06T06:20:33;5.97;;;2.65;;
18048;SDS011;9149;47.002;8.604;2022-09-06T06:23:00;11.35;;;2.88;;
18048;SDS011;9149;47.002;8.604;2022-09-06T06:25:28;3.50;;;2.67;;
18048;SDS011;9149;47.002;8.604;2022-09-06T06:27:56;9.80;;;3.00;;
18048;SDS011;9149;47.002;8.604;2022-09-06T06:30:25;6.82;;;2.85;;
18048;SDS011;9149;47.002;8.604;2022-09-06T06:32:53;3.38;;;2.35;;
18048;SDS011;9149;47.002;8.604;2022-09-06T06:35:21;6.57;;;2.88;;
18048;SDS011;9149;47.002;8.604;2022-09-06T06:37:48;5.18;;;3.08;;
18048;SDS011;9149;47.002;8.604;2022-09-06T06:40:16;4.78;;;3.00;;
18048;SDS011;9149;47.002;8.604;2022-09-06T06:42:44;6.47;;;2.55;;
18048;SDS011;9149;47.002;8.604;2022-09-06T06:45:11;9.43;;;2.88;;
18048;SDS011;9149;47.002;8.604;2022-09-06T06:47:40;5.03;;;3.08;;
18048;SDS011;9149;47.002;8.604;2022-09-06T06:50:08;4.85;;;2.83;;
18048;SDS011;9149;47.002;8.604;2022-09-06T06:52:36;8.68;;;3.45;;
18048;SDS011;9149;47.002;8.604;2022-09-06T06:55:05;6.03;;;3.10;;
18048;SDS011;9149;47.002;8.604;2022-09-06T06:57:32;6.18;;;2.80;;
18048;SDS011;9149;47.002;8.604;2022-09-06T07:00:00;11.00;;;3.67;;
18048;SDS011;9149;47.002;8.604;2022-09-06T07:02:29;14.68;;;3.50;;
18048;SDS011;9149;47.002;8.604;2022-09-06T07:04:58;9.77;;;3.28;;
18048;SDS011;9149;47.002;8.604;2022-09-06T07:07:26;4.25;;;2.88;;
18048;SDS011;9149;47.002;8.604;2022-09-06T07:09:55;7.47;;;2.97;;
18048;SDS011;9149;47.002;8.604;2022-09-06T07:12:42;9.40;;;3.60;;
18048;SDS011;9149;47.002;8.604;2022-09-06T07:15:11;5.93;;;2.90;;
18048;SDS011;9149;47.002;8.604;2022-09-06T07:17:39;6.60;;;2.88;;
18048;SDS011;9149;47.002;8.604;2022-09-06T07:20:08;5.55;;;3.00;;
18048;SDS011;9149;47.002;8.604;2022-09-06T07:22:37;10.70;;;2.70;;
18048;SDS011;9149;47.002;8.604;2022-09-06T07:25:06;9.95;;;3.25;;
18048;SDS011;9149;47.002;8.604;2022-09-06T07:27:34;8.02;;;2.70;;
18048;SDS011;9149;47.002;8.604;2022-09-06T07:30:17;8.00;;;2.90;;
18048;SDS011;9149;47.002;8.604;2022-09-06T07:32:46;4.15;;;2.83;;
18048;SDS011;9149;47.002;8.604;2022-09-06T07:35:15;4.07;;;3.00;;
18048;SDS011;9149;47.002;8.604;2022-09-06T07:37:53;6.07;;;2.90;;
18048;SDS011;9149;47.002;8.604;2022-09-06T07:40:21;6.20;;;2.63;;
18048;SDS011;9149;47.002;8.604;2022-09-06T07:42:49;3.63;;;2.28;;
18048;SDS011;9149;47.002;8.604;2022-09-06T07:45:17;6.43;;;2.63;;
18048;SDS011;9149;47.002;8.604;2022-09-06T07:47:51;5.53;;;2.70;;
18048;SDS011;9149;47.002;8.604;2022-09-06T07:50:24;3.97;;;2.40;;
18048;SDS011;9149;47.002;8.604;2022-09-06T07:53:11;4.07;;;2.45;;
18048;SDS011;9149;47.002;8.604;2022-09-06T07:55:45;3.33;;;2.22;;
18048;SDS011;9149;47.002;8.604;2022-09-06T07:58:12;6.38;;;2.28;;
18048;SDS011;9149;47.002;8.604;2022-09-06T08:00:40;9.90;;;2.72;;
18048;SDS011;9149;47.002;8.604;2022-09-06T08:03:08;7.13;;;2.47;;
18048;SDS011;9149;47.002;8.604;2022-09-06T08:05:37;4.72;;;2.10;;
18048;SDS011;9149;47.002;8.604;2022-09-06T08:08:25;9.52;;;2.10;;
18048;SDS011;9149;47.002;8.604;2022-09-06T08:11:13;5.93;;;2.20;;
18048;SDS011;9149;47.002;8.604;2022-09-06T08:13:42;5.95;;;2.05;;
18048;SDS011;9149;47.002;8.604;2022-09-06T08:16:10;4.75;;;2.40;;
18048;SDS011;9149;47.002;8.604;2022-09-06T08:18:39;6.90;;;2.53;;
18048;SDS011;9149;47.002;8.604;2022-09-06T08:21:09;7.32;;;2.63;;
18048;SDS011;9149;47.002;8.604;2022-09-06T08:23:38;4.28;;;2.17;;
18048;SDS011;9149;47.002;8.604;2022-09-06T08:26:08;7.05;;;2.10;;
18048;SDS011;9149;47.002;8.604;2022-09-06T08:28:36;9.75;;;2.42;;
18048;SDS011;9149;47.002;8.604;2022-09-06T08:31:04;6.50;;;2.33;;
18048;SDS011;9149;47.002;8.604;2022-09-06T08:33:32;9.95;;;2.67;;
18048;SDS011;9149;47.002;8.604;2022-09-06T08:35:59;4.00;;;1.80;;
18048;SDS011;9149;47.002;8.604;2022-09-06T08:38:29;7.40;;;2.10;;
18048;SDS011;9149;47.002;8.604;2022-09-06T08:41:04;6.88;;;2.63;;
18048;SDS011;9149;47.002;8.604;2022-09-06T08:43:33;6.68;;;2.30;;
18048;SDS011;9149;47.002;8.604;2022-09-06T08:46:01;8.00;;;2.22;;
18048;SDS011;9149;47.002;8.604;2022-09-06T08:48:30;6.55;;;2.15;;
18048;SDS011;9149;47.002;8.604;2022-09-06T08:51:04;7.18;;;1.67;;
18048;SDS011;9149;47.002;8.604;2022-09-06T08:53:36;4.25;;;1.98;;
18048;SDS011;9149;47.002;8.604;2022-09-06T08:56:09;9.93;;;1.85;;
18048;SDS011;9149;47.002;8.604;2022-09-06T08:58:43;8.32;;;2.50;;
18048;SDS011;9149;47.002;8.604;2022-09-06T09:01:17;8.30;;;2.03;;
18048;SDS011;9149;47.002;8.604;2022-09-06T09:03:48;3.70;;;2.00;;
18048;SDS011;9149;47.002;8.604;2022-09-06T09:06:16;11.07;;;2.30;;
18048;SDS011;9149;47.002;8.604;2022-09-06T09:08:46;9.82;;;2.42;;
18048;SDS011;9149;47.002;8.604;2022-09-06T09:11:17;13.15;;;2.20;;
18048;SDS011;9149;47.002;8.604;2022-09-06T09:13:50;11.00;;;2.28;;
18048;SDS011;9149;47.002;8.604;2022-09-06T09:16:21;7.07;;;2.30;;
18048;SDS011;9149;47.002;8.604;2022-09-06T09:18:50;4.60;;;2.20;;
18048;SDS011;9149;47.002;8.604;2022-09-06T09:21:19;5.75;;;2.45;;
18048;SDS011;9149;47.002;8.604;2022-09-06T09:23:54;4.95;;;2.33;;
18048;SDS011;9149;47.002;8.604;2022-09-06T09:26:22;5.78;;;2.20;;
18048;SDS011;9149;47.002;8.604;2022-09-06T09:31:34;4.97;;;2.50;;
18048;SDS011;9149;47.002;8.604;2022-09-06T09:34:02;3.33;;;2.10;;
18048;SDS011;9149;47.002;8.604;2022-09-06T09:36:30;3.70;;;2.25;;
18048;SDS011;9149;47.002;8.604;2022-09-06T09:38:59;11.32;;;2.47;;
18048;SDS011;9149;47.002;8.604;2022-09-06T09:41:35;7.82;;;2.47;;
18048;SDS011;9149;47.002;8.604;2022-09-06T09:44:04;7.47;;;2.33;;
18048;SDS011;9149;47.002;8.604;2022-09-06T09:46:32;5.95;;;2.50;;
18048;SDS011;9149;47.002;8.604;2022-09-06T09:49:02;6.75;;;2.75;;
18048;SDS011;9149;47.002;8.604;2022-09-06T09:51:31;8.75;;;2.42;;
18048;SDS011;9149;47.002;8.604;2022-09-06T09:54:01;4.93;;;2.47;;
18048;SDS011;9149;47.002;8.604;2022-09-06T09:56:35;4.47;;;2.55;;
18048;SDS011;9149;47.002;8.604;2022-09-06T09:59:06;6.45;;;2.40;;
18048;SDS011;9149;47.002;8.604;2022-09-06T10:01:34;7.03;;;2.40;;
18048;SDS011;9149;47.002;8.604;2022-09-06T10:04:05;9.27;;;2.90;;
18048;SDS011;9149;47.002;8.604;2022-09-06T10:07:04;6.38;;;2.40;;
18048;SDS011;9149;47.002;8.604;2022-09-06T10:09:34;5.30;;;2.38;;
18048;SDS011;9149;47.002;8.604;2022-09-06T10:12:03;12.27;;;2.85;;
18048;SDS011;9149;47.002;8.604;2022-09-06T10:14:32;6.90;;;2.40;;
18048;SDS011;9149;47.002;8.604;2022-09-06T10:19:46;7.03;;;2.50;;
18048;SDS011;9149;47.002;8.604;2022-09-06T10:22:20;5.32;;;2.20;;
18048;SDS011;9149;47.002;8.604;2022-09-06T10:24:56;4.03;;;2.15;;
18048;SDS011;9149;47.002;8.604;2022-09-06T10:27:27;5.00;;;1.92;;
18048;SDS011;9149;47.002;8.604;2022-09-06T10:29:57;4.05;;;2.00;;
18048;SDS011;9149;47.002;8.604;2022-09-06T10:32:30;12.20;;;2.70;;
18048;SDS011;9149;47.002;8.604;2022-09-06T10:35:02;4.65;;;2.13;;
18048;SDS011;9149;47.002;8.604;2022-09-06T10:37:37;6.03;;;2.10;;
18048;SDS011;9149;47.002;8.604;2022-09-06T10:40:09;5.63;;;2.50;;
18048;SDS011;9149;47.002;8.604;2022-09-06T10:42:39;9.32;;;2.47;;
18048;SDS011;9149;47.002;8.604;2022-09-06T10:45:19;10.43;;;2.58;;
18048;SDS011;9149;47.002;8.604;2022-09-06T10:47:53;5.45;;;2.70;;
18048;SDS011;9149;47.002;8.604;2022-09-06T10:50:23;8.68;;;2.60;;
18048;SDS011;9149;47.002;8.604;2022-09-06T10:52:54;12.63;;;2.25;;
18048;SDS011;9149;47.002;8.604;2022-09-06T10:55:26;3.15;;;2.17;;
18048;SDS011;9149;47.002;8.604;2022-09-06T10:57:54;9.05;;;2.50;;
18048;SDS011;9149;47.002;8.604;2022-09-06T11:00:44;5.18;;;2.45;;
18048;SDS011;9149;47.002;8.604;2022-09-06T11:03:15;12.70;;;2.60;;
18048;SDS011;9149;47.002;8.604;2022-09-06T11:06:06;9.00;;;2.75;;
18048;SDS011;9149;47.002;8.604;2022-09-06T11:08:35;14.23;;;2.70;;
18048;SDS011;9149;47.002;8.604;2022-09-06T11:11:14;3.80;;;2.53;;
18048;SDS011;9149;47.002;8.604;2022-09-06T11:13:43;8.73;;;2.72;;
18048;SDS011;9149;47.002;8.604;2022-09-06T11:16:13;9.25;;;3.28;;
18048;SDS011;9149;47.002;8.604;2022-09-06T11:18:43;7.18;;;3.15;;
18048;SDS011;9149;47.002;8.604;2022-09-06T11:21:18;7.80;;;2.88;;
18048;SDS011;9149;47.002;8.604;2022-09-06T11:23:51;6.68;;;2.50;;
18048;SDS011;9149;47.002;8.604;2022-09-06T11:28:58;11.10;;;3.03;;
18048;SDS011;9149;47.002;8.604;2022-09-06T11:31:29;6.97;;;2.60;;
18048;SDS011;9149;47.002;8.604;2022-09-06T11:34:19;11.38;;;2.83;;
18048;SDS011;9149;47.002;8.604;2022-09-06T11:36:47;5.50;;;2.47;;
18048;SDS011;9149;47.002;8.604;2022-09-06T11:39:26;7.57;;;3.10;;
18048;SDS011;9149;47.002;8.604;2022-09-06T11:47:45;10.60;;;3.10;;
18048;SDS011;9149;47.002;8.604;2022-09-06T11:53:08;7.05;;;2.67;;
18048;SDS011;9149;47.002;8.604;2022-09-06T11:55:41;11.95;;;2.70;;
18048;SDS011;9149;47.002;8.604;2022-09-06T11:58:10;6.07;;;2.50;;
18048;SDS011;9149;47.002;8.604;2022-09-06T12:01:31;11.23;;;2.58;;
18048;SDS011;9149;47.002;8.604;2022-09-06T12:06:35;5.38;;;2.63;;
18048;SDS011;9149;47.002;8.604;2022-09-06T12:11:46;7.38;;;3.22;;
18048;SDS011;9149;47.002;8.604;2022-09-06T12:14:25;10.35;;;2.90;;
18048;SDS011;9149;47.002;8.604;2022-09-06T12:19:41;11.25;;;2.83;;
18048;SDS011;9149;47.002;8.604;2022-09-06T12:24:51;11.98;;;4.03;;
18048;SDS011;9149;47.002;8.604;2022-09-06T12:27:20;10.77;;;3.30;;
18048;SDS011;9149;47.002;8.604;2022-09-06T12:29:50;7.75;;;3.58;;
18048;SDS011;9149;47.002;8.604;2022-09-06T12:32:21;10.45;;;3.00;;
18048;SDS011;9149;47.002;8.604;2022-09-06T12:34:50;13.38;;;3.85;;
18048;SDS011;9149;47.002;8.604;2022-09-06T12:37:48;6.93;;;3.20;;
18048;SDS011;9149;47.002;8.604;2022-09-06T12:40:18;11.18;;;3.63;;
18048;SDS011;9149;47.002;8.604;2022-09-06T12:42:46;8.45;;;3.08;;
18048;SDS011;9149;47.002;8.604;2022-09-06T12:45:15;10.98;;;4.05;;
18048;SDS011;9149;47.002;8.604;2022-09-06T12:47:44;10.38;;;3.65;;
18048;SDS011;9149;47.002;8.604;2022-09-06T12:50:14;11.90;;;3.50;;
18048;SDS011;9149;47.002;8.604;2022-09-06T12:52:44;12.90;;;3.92;;
18048;SDS011;9149;47.002;8.604;2022-09-06T12:55:14;7.45;;;3.58;;
18048;SDS011;9149;47.002;8.604;2022-09-06T12:57:47;19.45;;;3.45;;
18048;SDS011;9149;47.002;8.604;2022-09-06T13:00:17;12.57;;;4.07;;
18048;SDS011;9149;47.002;8.604;2022-09-06T13:02:50;20.13;;;3.90;;
18048;SDS011;9149;47.002;8.604;2022-09-06T13:05:20;5.88;;;2.95;;
18048;SDS011;9149;47.002;8.604;2022-09-06T13:07:49;8.80;;;3.13;;
18048;SDS011;9149;47.002;8.604;2022-09-06T13:10:18;9.90;;;3.05;;
18048;SDS011;9149;47.002;8.604;2022-09-06T13:12:49;11.90;;;2.78;;
18048;SDS011;9149;47.002;8.604;2022-09-06T13:15:19;8.88;;;3.00;;
18048;SDS011;9149;47.002;8.604;2022-09-06T13:17:47;13.95;;;2.75;;
18048;SDS011;9149;47.002;8.604;2022-09-06T13:20:20;4.07;;;2.25;;
18048;SDS011;9149;47.002;8.604;2022-09-06T13:22:48;8.88;;;2.33;;
18048;SDS011;9149;47.002;8.604;2022-09-06T13:25:21;7.45;;;2.20;;
18048;SDS011;9149;47.002;8.604;2022-09-06T13:27:52;7.75;;;2.20;;
18048;SDS011;9149;47.002;8.604;2022-09-06T13:30:31;6.50;;;2.20;;
18048;SDS011;9149;47.002;8.604;2022-09-06T13:32:59;5.68;;;1.70;;
18048;SDS011;9149;47.002;8.604;2022-09-06T13:35:28;5.28;;;1.80;;
18048;SDS011;9149;47.002;8.604;2022-09-06T13:40:35;3.30;;;1.88;;
18048;SDS011;9149;47.002;8.604;2022-09-06T13:43:24;5.90;;;1.98;;
18048;SDS011;9149;47.002;8.604;2022-09-06T13:48:35;7.00;;;2.47;;
18048;SDS011;9149;47.002;8.604;2022-09-06T13:51:05;12.10;;;2.88;;
18048;SDS011;9149;47.002;8.604;2022-09-06T13:53:33;4.82;;;2.05;;
18048;SDS011;9149;47.002;8.604;2022-09-06T13:56:02;8.57;;;2.30;;
18048;SDS011;9149;47.002;8.604;2022-09-06T13:58:35;8.77;;;2.25;;
18048;SDS011;9149;47.002;8.604;2022-09-06T14:01:03;11.30;;;2.60;;
18048;SDS011;9149;47.002;8.604;2022-09-06T14:03:34;4.22;;;2.00;;
18048;SDS011;9149;47.002;8.604;2022-09-06T14:06:02;4.80;;;1.92;;
18048;SDS011;9149;47.002;8.604;2022-09-06T14:08:30;6.30;;;2.15;;
18048;SDS011;9149;47.002;8.604;2022-09-06T14:11:19;5.70;;;1.80;;
18048;SDS011;9149;47.002;8.604;2022-09-06T14:13:48;5.13;;;1.80;;
18048;SDS011;9149;47.002;8.604;2022-09-06T14:16:16;3.33;;;1.50;;
18048;SDS011;9149;47.002;8.604;2022-09-06T14:18:43;4.95;;;1.90;;
18048;SDS011;9149;47.002;8.604;2022-09-06T14:21:11;15.73;;;2.58;;
18048;SDS011;9149;47.002;8.604;2022-09-06T14:23:39;6.22;;;2.00;;
18048;SDS011;9149;47.002;8.604;2022-09-06T14:26:07;10.13;;;1.90;;
18048;SDS011;9149;47.002;8.604;2022-09-06T14:28:35;8.65;;;1.70;;
18048;SDS011;9149;47.002;8.604;2022-09-06T14:31:12;4.20;;;1.90;;
18048;SDS011;9149;47.002;8.604;2022-09-06T14:33:40;5.03;;;1.65;;
18048;SDS011;9149;47.002;8.604;2022-09-06T14:36:09;3.72;;;1.05;;
18048;SDS011;9149;47.002;8.604;2022-09-06T14:38:37;3.78;;;1.20;;
18048;SDS011;9149;47.002;8.604;2022-09-06T14:41:06;3.33;;;1.20;;
18048;SDS011;9149;47.002;8.604;2022-09-06T14:43:34;4.45;;;1.50;;
18048;SDS011;9149;47.002;8.604;2022-09-06T14:46:03;9.25;;;1.20;;
18048;SDS011;9149;47.002;8.604;2022-09-06T14:48:32;4.55;;;1.08;;
18048;SDS011;9149;47.002;8.604;2022-09-06T14:51:06;6.53;;;1.55;;
18048;SDS011;9149;47.002;8.604;2022-09-06T14:53:36;2.40;;;0.80;;
18048;SDS011;9149;47.002;8.604;2022-09-06T14:56:06;3.35;;;1.20;;
18048;SDS011;9149;47.002;8.604;2022-09-06T14:58:35;3.67;;;1.45;;
18048;SDS011;9149;47.002;8.604;2022-09-06T15:01:05;5.32;;;1.73;;
18048;SDS011;9149;47.002;8.604;2022-09-06T15:03:34;6.20;;;1.75;;
18048;SDS011;9149;47.002;8.604;2022-09-06T15:06:02;11.43;;;1.52;;
18048;SDS011;9149;47.002;8.604;2022-09-06T15:08:30;7.47;;;1.70;;
18048;SDS011;9149;47.002;8.604;2022-09-06T15:10:58;9.30;;;1.70;;
18048;SDS011;9149;47.002;8.604;2022-09-06T15:13:26;10.55;;;2.00;;
18048;SDS011;9149;47.002;8.604;2022-09-06T15:15:54;8.23;;;1.60;;
18048;SDS011;9149;47.002;8.604;2022-09-06T15:18:22;7.40;;;2.03;;
18048;SDS011;9149;47.002;8.604;2022-09-06T15:20:51;3.67;;;1.70;;
18048;SDS011;9149;47.002;8.604;2022-09-06T15:23:19;8.55;;;1.90;;
18048;SDS011;9149;47.002;8.604;2022-09-06T15:25:51;7.50;;;2.20;;
18048;SDS011;9149;47.002;8.604;2022-09-06T15:28:19;5.68;;;1.92;;
18048;SDS011;9149;47.002;8.604;2022-09-06T15:30:47;9.82;;;2.17;;
18048;SDS011;9149;47.002;8.604;2022-09-06T15:33:15;7.38;;;1.90;;
18048;SDS011;9149;47.002;8.604;2022-09-06T15:35:43;11.13;;;1.73;;
18048;SDS011;9149;47.002;8.604;2022-09-06T15:38:12;9.30;;;1.92;;
18048;SDS011;9149;47.002;8.604;2022-09-06T15:40:40;4.65;;;1.63;;
18048;SDS011;9149;47.002;8.604;2022-09-06T15:43:07;3.28;;;1.75;;
18048;SDS011;9149;47.002;8.604;2022-09-06T15:45:37;5.78;;;1.60;;
18048;SDS011;9149;47.002;8.604;2022-09-06T15:48:13;7.03;;;2.10;;
18048;SDS011;9149;47.002;8.604;2022-09-06T15:50:42;5.72;;;2.00;;
18048;SDS011;9149;47.002;8.604;2022-09-06T15:53:18;4.68;;;1.90;;